Lake City, California
Current Conditions -  °F | °C
As of 2:55 AM on Monday 20 Oct 2014 (Local Time) from KAAT Reporting Station
Clear Clear  
Wind Chill: 38°   Ceiling: Unl
Heat Index: 41°   Visibility: 10mi
Dew Point: 31°   Wind: 5mph
Humidity: 67%   Direction: 130°SE
Pressure: 29.93"   Gusts: NA
Location:  41.64°N, 120.22°W
Report Text: KAAT 200955Z AUTO 13004KT 10SM CLR 05/M01 A2993 RMK AO2 SLP108 T00501006 $
Loading
Personal Weather Stations






























Interactive Weather Map
Tropical Storm Tracking
New forecast layout! Learn more

10-Day Weather Forecast

Advertisements
Track Severe Weather on mobile